createdAt,value
2018-11-23T00:00:30.786Z,23.27
2018-11-23T00:03:00.546Z,20.87
2018-11-23T00:05:29.717Z,20.77
2018-11-23T00:07:59.492Z,17.60
2018-11-23T00:10:30.203Z,20.47
2018-11-23T00:12:59.423Z,19.00
2018-11-23T00:15:28.590Z,19.90
2018-11-23T00:17:57.752Z,22.27
2018-11-23T00:20:28.053Z,19.80
2018-11-23T00:22:57.206Z,17.67
2018-11-23T00:25:28.067Z,17.73
2018-11-23T00:27:57.797Z,20.20
2018-11-23T00:30:28.478Z,19.90
2018-11-23T00:32:57.657Z,27.27
2018-11-23T00:35:28.948Z,20.77
2018-11-23T00:37:58.761Z,20.60
2018-11-23T00:40:31.008Z,17.87
2018-11-23T00:43:00.546Z,23.60
2018-11-23T00:45:29.792Z,23.10
2018-11-23T00:47:59.559Z,19.00
2018-11-23T00:50:28.856Z,18.30
2018-11-23T00:52:59.230Z,18.67
2018-11-23T00:55:28.981Z,20.93
2018-11-23T00:57:58.100Z,18.93
2018-11-23T01:00:32.689Z,19.73
2018-11-23T01:03:03.101Z,21.90
2018-11-23T01:05:32.369Z,20.43
2018-11-23T01:08:01.501Z,18.63
2018-11-23T01:10:31.278Z,23.60
2018-11-23T01:13:00.516Z,24.20
2018-11-23T01:15:30.337Z,24.37
2018-11-23T01:17:59.557Z,19.00
2018-11-23T01:20:29.160Z,18.97
2018-11-23T01:22:58.866Z,24.77
2018-11-23T01:25:28.710Z,22.37
2018-11-23T01:27:58.057Z,22.60
2018-11-23T01:30:31.410Z,21.20
2018-11-23T01:33:00.686Z,21.07
2018-11-23T01:35:29.961Z,19.40
2018-11-23T01:37:59.078Z,19.30
2018-11-23T01:40:29.772Z,20.03
2018-11-23T01:42:59.217Z,16.67
2018-11-23T01:45:28.410Z,20.13
2018-11-23T01:47:57.566Z,18.40
2018-11-23T01:50:28.993Z,22.20
2018-11-23T01:52:58.421Z,25.67
2018-11-23T01:55:27.935Z,21.20
2018-11-23T01:57:57.112Z,21.70
2018-11-23T02:00:27.625Z,20.83
2018-11-23T02:02:57.261Z,23.03
2018-11-23T02:05:26.535Z,21.30
2018-11-23T02:07:55.745Z,19.57
2018-11-23T02:10:24.855Z,17.97
2018-11-23T02:12:54.013Z,18.37
2018-11-23T02:15:23.653Z,17.93
2018-11-23T02:17:53.021Z,18.80
2018-11-23T02:20:22.915Z,17.07
2018-11-23T02:22:52.076Z,21.87
2018-11-23T02:25:21.311Z,25.00
2018-11-23T02:27:50.506Z,18.07
2018-11-23T02:30:22.872Z,18.33
2018-11-23T02:32:52.014Z,21.50
2018-11-23T02:35:21.245Z,16.23
2018-11-23T02:37:50.497Z,23.30
2018-11-23T02:40:20.486Z,19.67
2018-11-23T02:42:49.644Z,20.43
2018-11-23T02:45:23.229Z,21.70
2018-11-23T02:47:52.634Z,16.37
2018-11-23T02:50:21.802Z,21.73
2018-11-23T02:52:51.046Z,18.67
2018-11-23T02:55:20.828Z,17.23
2018-11-23T02:57:49.993Z,20.90
2018-11-23T03:00:20.554Z,17.87
2018-11-23T03:02:49.783Z,21.90
2018-11-23T03:05:23.309Z,18.60
2018-11-23T03:07:52.485Z,20.70
2018-11-23T03:10:22.679Z,22.90
2018-11-23T03:12:51.939Z,19.83
2018-11-23T03:15:21.467Z,19.17
2018-11-23T03:17:51.064Z,19.83
2018-11-23T03:20:21.541Z,20.27
2018-11-23T03:22:50.889Z,22.43
2018-11-23T03:25:20.089Z,22.73
2018-11-23T03:27:49.219Z,20.30
2018-11-23T03:30:20.849Z,17.47
2018-11-23T03:32:50.814Z,18.60
2018-11-23T03:35:20.773Z,17.73
2018-11-23T03:37:50.010Z,18.03
2018-11-23T03:40:19.178Z,18.97
2018-11-23T03:42:48.371Z,19.03
2018-11-23T03:45:17.869Z,17.30
2018-11-23T03:47:47.179Z,16.30
2018-11-23T03:50:17.070Z,14.57
2018-11-23T03:52:46.303Z,16.00
2018-11-23T03:55:15.553Z,17.17
2018-11-23T03:57:44.725Z,16.80
2018-11-23T04:00:22.326Z,15.10
2018-11-23T04:02:51.904Z,17.90
2018-11-23T04:05:21.330Z,16.40
2018-11-23T04:07:51.426Z,17.17
2018-11-23T04:10:20.600Z,18.80
2018-11-23T04:12:49.721Z,19.27
2018-11-23T04:15:18.995Z,16.53
2018-11-23T04:17:48.168Z,15.97
2018-11-23T04:20:18.159Z,16.93
2018-11-23T04:22:47.315Z,19.13
2018-11-23T04:25:16.566Z,17.03
2018-11-23T04:27:45.710Z,15.83
2018-11-23T04:30:16.069Z,18.90
2018-11-23T04:32:46.125Z,20.47
2018-11-23T04:35:16.498Z,14.60
2018-11-23T04:37:46.319Z,16.53
2018-11-23T04:40:16.434Z,18.30
2018-11-23T04:42:45.510Z,19.97
2018-11-23T04:45:15.241Z,16.13
2018-11-23T04:47:44.435Z,18.10
2018-11-23T04:50:15.221Z,18.03
2018-11-23T04:52:44.729Z,19.70
2018-11-23T04:55:14.002Z,19.90
2018-11-23T04:57:43.633Z,24.20
2018-11-23T05:00:15.058Z,19.17
2018-11-23T05:02:44.856Z,19.50
2018-11-23T05:05:14.307Z,19.37
2018-11-23T05:07:44.887Z,17.30
2018-11-23T05:10:15.169Z,18.03
2018-11-23T05:12:44.378Z,20.10
2018-11-23T05:15:15.126Z,19.10
2018-11-23T05:17:44.619Z,19.67
2018-11-23T05:20:14.502Z,17.13
2018-11-23T05:22:43.969Z,18.47
2018-11-23T05:25:14.444Z,15.90
2018-11-23T05:27:43.623Z,19.37
2018-11-23T05:30:15.427Z,18.47
2018-11-23T05:32:45.102Z,18.23
2018-11-23T05:35:15.118Z,19.30
2018-11-23T05:37:44.194Z,19.90
2018-11-23T05:40:15.171Z,17.90
2018-11-23T05:42:49.835Z,18.47
2018-11-23T05:45:20.859Z,18.00
2018-11-23T05:47:50.097Z,16.60
2018-11-23T05:50:22.026Z,17.50
2018-11-23T05:52:51.203Z,17.73
2018-11-23T05:55:20.386Z,20.30
2018-11-23T05:57:49.699Z,18.60
2018-11-23T06:00:25.735Z,18.90
2018-11-23T06:02:54.944Z,19.17
2018-11-23T06:05:24.116Z,20.00
2018-11-23T06:07:53.328Z,19.30
2018-11-23T06:10:23.097Z,17.87
2018-11-23T06:12:52.471Z,20.87
2018-11-23T06:15:22.833Z,18.70
2018-11-23T06:17:52.174Z,19.80
2018-11-23T06:20:22.920Z,20.23
2018-11-23T06:22:52.954Z,20.80
2018-11-23T06:25:46.046Z,17.63
2018-11-23T06:28:15.237Z,19.93
2018-11-23T06:30:44.447Z,20.97
2018-11-23T06:33:35.006Z,19.03
2018-11-23T06:36:04.239Z,21.13
2018-11-23T06:38:33.454Z,18.77
2018-11-23T06:41:02.596Z,19.10
2018-11-23T06:43:31.814Z,19.57
2018-11-23T06:46:01.862Z,16.30
2018-11-23T06:48:31.059Z,16.27
2018-11-23T06:51:00.250Z,15.10
2018-11-23T06:53:29.462Z,18.27
2018-11-23T06:55:59.409Z,15.00
2018-11-23T06:58:28.619Z,16.60
2018-11-23T07:00:58.087Z,15.60
2018-11-23T07:03:27.578Z,15.07
2018-11-23T07:05:57.271Z,17.50
2018-11-23T07:08:26.586Z,17.13
2018-11-23T07:10:59.566Z,13.90
2018-11-23T07:13:29.576Z,16.30
2018-11-23T07:15:58.834Z,14.03
2018-11-23T07:18:28.144Z,13.20
2018-11-23T07:20:57.369Z,16.50
2018-11-23T07:23:26.597Z,15.03
2018-11-23T07:25:55.765Z,16.90
2018-11-23T07:28:25.868Z,15.30
2018-11-23T07:31:02.001Z,16.70
2018-11-23T07:33:24.357Z,14.47
2018-11-23T07:35:53.579Z,16.57
2018-11-23T07:38:22.751Z,16.27
2018-11-23T07:42:02.310Z,18.57
2018-11-23T07:44:31.438Z,15.90
2018-11-23T07:47:00.644Z,15.73
2018-11-23T07:49:30.289Z,15.10
2018-11-23T07:51:59.467Z,15.17
2018-11-23T07:54:28.744Z,15.30
2018-11-23T07:56:57.897Z,14.33
2018-11-23T07:59:27.055Z,14.27
2018-11-23T08:01:56.209Z,12.50
2018-11-23T08:04:25.376Z,13.70
2018-11-23T08:06:54.530Z,13.87
2018-11-23T08:09:23.956Z,16.13
2018-11-23T08:11:53.513Z,14.20
2018-11-23T08:14:23.093Z,13.87
2018-11-23T08:16:52.467Z,14.63
2018-11-23T08:19:21.576Z,14.37
2018-11-23T08:21:51.521Z,14.03
2018-11-23T08:24:20.674Z,13.50
2018-11-23T08:26:49.893Z,15.57
2018-11-23T08:29:18.992Z,16.07
2018-11-23T08:31:48.154Z,15.23
2018-11-23T08:34:17.393Z,16.43
2018-11-23T08:36:46.616Z,17.93
2018-11-23T08:39:15.812Z,18.50
2018-11-23T08:41:45.081Z,17.27
2018-11-23T08:44:14.249Z,17.87
2018-11-23T08:46:43.436Z,17.80
2018-11-23T08:49:12.652Z,20.07
2018-11-23T08:51:41.826Z,19.43
2018-11-23T08:54:10.998Z,16.23
2018-11-23T08:56:40.200Z,17.17
2018-11-23T08:59:09.370Z,16.50
2018-11-23T09:01:38.565Z,16.40
2018-11-23T09:04:07.858Z,17.07
2018-11-23T09:06:37.170Z,15.37
2018-11-23T09:09:09.346Z,16.83
2018-11-23T09:11:38.585Z,18.30
2018-11-23T09:14:08.960Z,18.27
2018-11-23T09:16:38.089Z,16.23
2018-11-23T09:19:07.338Z,16.23
2018-11-23T09:21:36.528Z,15.20
2018-11-23T09:24:05.905Z,15.30
2018-11-23T09:26:35.417Z,14.83
2018-11-23T09:29:04.605Z,15.63
2018-11-23T09:31:33.713Z,16.17
2018-11-23T09:34:02.923Z,16.13
2018-11-23T09:36:32.079Z,16.80
2018-11-23T09:39:01.309Z,17.53
2018-11-23T09:41:30.517Z,17.70
2018-11-23T09:43:59.717Z,16.70
2018-11-23T09:46:28.875Z,15.50
2018-11-23T09:48:58.009Z,17.37
2018-11-23T09:51:27.173Z,15.90
2018-11-23T09:53:56.393Z,16.80
2018-11-23T09:56:25.545Z,15.83
2018-11-23T09:58:54.741Z,17.60
2018-11-23T10:01:23.967Z,16.93
2018-11-23T10:03:53.140Z,17.80
2018-11-23T10:06:22.435Z,16.87
2018-11-23T10:08:51.718Z,17.03
2018-11-23T10:11:20.925Z,17.03
2018-11-23T10:13:50.120Z,16.07
2018-11-23T10:16:19.304Z,18.00
2018-11-23T10:18:48.435Z,16.10
2018-11-23T10:21:17.678Z,15.17
2018-11-23T10:23:46.879Z,15.80
2018-11-23T10:26:16.135Z,15.83
2018-11-23T10:28:45.276Z,16.60
2018-11-23T10:31:14.401Z,16.43
2018-11-23T10:33:43.591Z,16.80
2018-11-23T10:36:12.780Z,16.10
2018-11-23T10:38:42.002Z,18.03
2018-11-23T10:41:11.217Z,16.07
2018-11-23T10:43:40.397Z,15.87
2018-11-23T10:46:09.643Z,17.40
2018-11-23T10:48:38.742Z,16.60
2018-11-23T10:51:07.885Z,15.90
2018-11-23T10:53:37.077Z,17.23
2018-11-23T10:56:06.449Z,16.47
2018-11-23T10:58:35.740Z,16.70
2018-11-23T11:01:10.284Z,15.23
2018-11-23T11:03:45.495Z,15.20
2018-11-23T11:06:19.741Z,16.30
2018-11-23T11:08:48.879Z,14.00
2018-11-23T11:11:18.134Z,15.23
2018-11-23T11:13:47.284Z,15.83
2018-11-23T11:16:16.547Z,15.20
2018-11-23T11:18:45.769Z,14.63
2018-11-23T11:21:14.978Z,15.07
2018-11-23T11:23:44.137Z,14.80
2018-11-23T11:26:13.366Z,15.13
2018-11-23T11:28:43.186Z,14.50
2018-11-23T11:31:12.357Z,14.90
2018-11-23T11:33:41.566Z,14.73
2018-11-23T11:36:10.701Z,14.40
2018-11-23T11:38:39.897Z,14.10
2018-11-23T11:41:09.082Z,13.00
2018-11-23T11:43:41.016Z,12.40
2018-11-23T11:46:10.666Z,12.47
2018-11-23T11:48:39.854Z,12.10
2018-11-23T11:51:09.725Z,13.27
2018-11-23T11:53:38.904Z,11.07
2018-11-23T11:56:08.105Z,11.43
2018-11-23T11:58:37.570Z,11.47
2018-11-23T12:01:06.921Z,11.87
2018-11-23T12:03:36.135Z,13.50
2018-11-23T12:06:05.477Z,12.10
2018-11-23T12:08:34.673Z,12.30
2018-11-23T12:11:04.436Z,12.67
2018-11-23T12:13:33.692Z,12.90
2018-11-23T12:16:02.898Z,11.60
2018-11-23T12:18:32.161Z,12.57
2018-11-23T12:21:01.348Z,12.50
2018-11-23T12:23:30.617Z,13.27
2018-11-23T12:25:59.918Z,14.03
2018-11-23T12:28:29.124Z,12.00
2018-11-23T12:30:58.369Z,10.00
2018-11-23T12:33:27.535Z,10.13
2018-11-23T12:35:56.784Z,11.87
2018-11-23T12:38:25.927Z,10.67
2018-11-23T12:40:55.195Z,10.00
2018-11-23T12:43:24.347Z,11.30
2018-11-23T12:45:53.546Z,11.60
2018-11-23T12:48:22.698Z,10.60
2018-11-23T12:50:51.893Z,11.50
2018-11-23T12:53:21.017Z,11.10
2018-11-23T12:55:50.225Z,11.00
2018-11-23T12:58:19.393Z,11.40
2018-11-23T13:00:48.571Z,11.50
2018-11-23T13:03:17.753Z,11.33
2018-11-23T13:05:46.995Z,12.17
2018-11-23T13:08:16.104Z,12.00
2018-11-23T13:10:45.385Z,13.20
2018-11-23T13:13:14.500Z,11.53
2018-11-23T13:15:43.707Z,12.40
2018-11-23T13:18:12.851Z,11.97
2018-11-23T13:20:42.041Z,13.00
2018-11-23T13:23:11.243Z,12.63
2018-11-23T13:25:40.425Z,12.77
2018-11-23T13:28:09.603Z,12.30
2018-11-23T13:30:38.774Z,12.67
2018-11-23T13:33:07.997Z,11.30
2018-11-23T13:35:37.158Z,12.40
2018-11-23T13:38:06.366Z,13.10
2018-11-23T13:40:35.619Z,12.53
2018-11-23T13:43:04.938Z,13.50
2018-11-23T13:45:34.773Z,12.50
2018-11-23T13:48:03.926Z,14.70
2018-11-23T13:50:33.153Z,15.10
2018-11-23T13:53:03.123Z,13.80
2018-11-23T13:55:32.873Z,13.20
2018-11-23T13:58:02.116Z,13.53
2018-11-23T14:00:31.523Z,13.87
2018-11-23T14:03:00.672Z,14.67
2018-11-23T14:05:31.557Z,12.43
2018-11-23T14:08:02.022Z,13.77
2018-11-23T14:10:31.473Z,13.40
2018-11-23T14:13:00.766Z,15.53
2018-11-23T14:15:31.106Z,14.43
2018-11-23T14:18:00.943Z,15.07
2018-11-23T14:20:30.549Z,14.80
2018-11-23T14:22:59.719Z,15.33
2018-11-23T14:25:32.228Z,14.83
2018-11-23T14:28:01.529Z,14.10
2018-11-23T14:30:32.248Z,15.37
2018-11-23T14:33:02.045Z,16.47
2018-11-23T14:35:32.286Z,16.77
2018-11-23T14:38:02.019Z,17.23
2018-11-23T14:40:31.373Z,17.57
2018-11-23T14:43:00.773Z,16.63
2018-11-23T14:45:31.541Z,16.17
2018-11-23T14:48:02.247Z,19.73
2018-11-23T14:50:32.517Z,19.17
2018-11-23T14:53:01.976Z,16.53
2018-11-23T14:55:31.686Z,17.67
2018-11-23T14:58:00.878Z,17.03
2018-11-23T15:00:34.670Z,16.50
2018-11-23T15:03:04.988Z,15.53
2018-11-23T15:05:34.625Z,17.07
2018-11-23T15:08:03.858Z,15.53
2018-11-23T15:10:34.066Z,16.00
2018-11-23T15:13:04.316Z,16.77
2018-11-23T15:15:36.911Z,16.40
2018-11-23T15:18:06.917Z,16.50
2018-11-23T15:20:39.487Z,17.13
2018-11-23T15:23:10.067Z,17.80
2018-11-23T15:25:40.163Z,18.20
2018-11-23T15:28:11.698Z,16.30
2018-11-23T15:30:41.655Z,18.00
2018-11-23T15:33:12.447Z,16.87
2018-11-23T15:35:42.313Z,17.17
2018-11-23T15:38:13.242Z,17.43
2018-11-23T15:40:42.586Z,20.60
2018-11-23T15:43:13.124Z,37.30
2018-11-23T15:45:42.380Z,21.37
2018-11-23T15:48:12.063Z,22.83
2018-11-23T15:50:42.354Z,19.73
2018-11-23T15:53:12.874Z,29.37
2018-11-23T15:55:42.441Z,21.83
2018-11-23T15:58:14.793Z,19.13
2018-11-23T16:00:45.297Z,20.77
2018-11-23T16:03:15.501Z,21.73
2018-11-23T16:05:44.716Z,21.93
2018-11-23T16:08:15.838Z,19.50
2018-11-23T16:10:45.051Z,19.23
2018-11-23T16:13:14.129Z,17.80
2018-11-23T16:15:43.305Z,18.03
2018-11-23T16:18:17.350Z,23.33
2018-11-23T16:20:47.336Z,28.90
2018-11-23T16:23:18.029Z,24.87
2018-11-23T16:25:47.837Z,25.20
2018-11-23T16:28:17.039Z,20.70
2018-11-23T16:30:47.764Z,23.40
2018-11-23T16:33:18.625Z,22.20
2018-11-23T16:35:47.798Z,21.40
2018-11-23T16:38:18.408Z,29.27
2018-11-23T16:40:50.787Z,33.73
2018-11-23T16:43:19.967Z,24.07
2018-11-23T16:45:49.367Z,22.37
2018-11-23T16:48:19.353Z,22.47
2018-11-23T16:50:48.564Z,19.87
2018-11-23T16:53:17.742Z,23.60
2018-11-23T16:55:46.885Z,21.00
2018-11-23T16:58:16.051Z,21.83
2018-11-23T17:00:47.475Z,19.70
2018-11-23T17:03:18.528Z,21.60
2018-11-23T17:05:50.699Z,26.77
2018-11-23T17:08:19.861Z,22.93
2018-11-23T17:10:49.064Z,21.07
2018-11-23T17:13:18.301Z,22.13
2018-11-23T17:15:47.517Z,19.80
2018-11-23T17:18:16.708Z,19.13
2018-11-23T17:20:45.825Z,21.60
2018-11-23T17:23:15.094Z,23.10
2018-11-23T17:25:44.292Z,20.27
2018-11-23T17:28:13.811Z,21.10
2018-11-23T17:30:42.977Z,23.00
2018-11-23T17:33:12.178Z,21.33
2018-11-23T17:35:41.405Z,20.67
2018-11-23T17:38:10.614Z,20.90
2018-11-23T17:40:44.141Z,20.07
2018-11-23T17:43:13.293Z,20.37
2018-11-23T17:45:42.512Z,20.60
2018-11-23T17:48:11.682Z,21.00
2018-11-23T17:50:40.981Z,19.30
2018-11-23T17:53:10.196Z,19.80
2018-11-23T17:55:39.421Z,19.27
2018-11-23T17:58:08.645Z,28.43
2018-11-23T18:00:39.578Z,23.13
2018-11-23T18:03:08.120Z,15.73
2018-11-23T18:05:37.522Z,15.73
2018-11-23T18:08:07.494Z,17.10
2018-11-23T18:10:36.671Z,18.03
2018-11-23T18:13:05.931Z,14.77
2018-11-23T18:15:35.753Z,15.00
2018-11-23T18:18:06.049Z,16.90
2018-11-23T18:20:35.572Z,17.03
2018-11-23T18:23:05.179Z,17.30
2018-11-23T18:25:36.094Z,17.37
2018-11-23T18:28:06.271Z,18.00
2018-11-23T18:30:35.799Z,19.40
2018-11-23T18:33:07.474Z,19.00
2018-11-23T18:35:36.758Z,17.83
2018-11-23T18:38:06.050Z,19.47
2018-11-23T18:40:37.441Z,24.60
2018-11-23T18:43:04.530Z,19.43
2018-11-23T18:45:33.740Z,21.50
2018-11-23T18:48:02.960Z,23.33
2018-11-23T18:50:32.196Z,21.10
2018-11-23T18:53:01.309Z,20.30
2018-11-23T18:55:30.630Z,21.27
2018-11-23T18:57:59.921Z,21.47
2018-11-23T19:00:29.065Z,20.80
2018-11-23T19:02:58.242Z,20.60
2018-11-23T19:05:28.222Z,20.43
2018-11-23T19:07:57.462Z,22.70
2018-11-23T19:10:26.611Z,21.17
2018-11-23T19:12:55.851Z,23.50
2018-11-23T19:15:25.876Z,23.37
2018-11-23T19:17:54.262Z,21.93
2018-11-23T19:20:23.889Z,25.33
2018-11-23T19:22:57.524Z,22.13
2018-11-23T19:25:26.652Z,22.43
2018-11-23T19:27:55.878Z,21.70
2018-11-23T19:30:28.698Z,20.67
2018-11-23T19:32:55.530Z,21.00
2018-11-23T19:35:24.729Z,20.27
2018-11-23T19:37:54.225Z,20.30
2018-11-23T19:40:23.716Z,23.37
2018-11-23T19:42:53.101Z,19.97
2018-11-23T19:45:22.962Z,22.50
2018-11-23T19:47:53.182Z,21.50
2018-11-23T19:50:22.891Z,21.03
2018-11-23T19:52:52.650Z,20.90
2018-11-23T19:55:22.313Z,18.57
2018-11-23T19:57:51.506Z,18.77
2018-11-23T20:00:22.726Z,21.60
2018-11-23T20:02:52.753Z,18.97
2018-11-23T20:05:22.909Z,19.27
2018-11-23T20:07:55.464Z,20.03
2018-11-23T20:10:25.374Z,18.57
2018-11-23T20:12:57.363Z,19.00
2018-11-23T20:15:27.336Z,16.90
2018-11-23T20:17:56.855Z,16.27
2018-11-23T20:20:26.151Z,17.33
2018-11-23T20:22:55.886Z,17.70
2018-11-23T20:25:25.929Z,18.73
2018-11-23T20:27:55.829Z,17.47
2018-11-23T20:30:25.330Z,16.30
2018-11-23T20:32:55.129Z,17.83
2018-11-23T20:35:24.487Z,16.87
2018-11-23T20:37:53.709Z,16.20
2018-11-23T20:40:24.086Z,16.37
2018-11-23T20:42:54.520Z,16.03
2018-11-23T20:45:24.445Z,15.43
2018-11-23T20:47:53.616Z,15.97
2018-11-23T20:50:22.826Z,14.87
2018-11-23T20:52:52.770Z,14.00
2018-11-23T20:55:23.013Z,14.20
2018-11-23T20:57:53.272Z,15.17
2018-11-23T21:00:22.951Z,14.80
2018-11-23T21:02:53.364Z,15.97
2018-11-23T21:05:23.020Z,13.20
2018-11-23T21:07:52.427Z,14.80
2018-11-23T21:10:25.209Z,15.63
2018-11-23T21:12:55.138Z,13.17
2018-11-23T21:15:27.288Z,13.03
2018-11-23T21:17:57.252Z,13.70
2018-11-23T21:20:26.490Z,14.50
2018-11-23T21:22:55.695Z,13.23
2018-11-23T21:25:24.836Z,13.67
2018-11-23T21:27:54.564Z,13.90
2018-11-23T21:30:24.439Z,12.93
2018-11-23T21:32:55.143Z,13.70
2018-11-23T21:35:24.591Z,13.30
2018-11-23T21:37:54.230Z,13.17
2018-11-23T21:40:23.690Z,14.33
2018-11-23T21:42:53.346Z,14.53
2018-11-23T21:45:22.836Z,13.13
2018-11-23T21:47:52.233Z,13.20
2018-11-23T21:50:25.390Z,12.90
2018-11-23T21:52:52.078Z,13.27
2018-11-23T21:55:23.119Z,12.80
2018-11-23T21:57:53.341Z,13.50
2018-11-23T22:00:22.913Z,13.30
2018-11-23T22:02:52.381Z,14.77
2018-11-23T22:05:21.805Z,14.00
2018-11-23T22:07:51.335Z,13.80
2018-11-23T22:10:24.251Z,14.07
2018-11-23T22:12:53.681Z,13.30
2018-11-23T22:15:26.314Z,13.50
2018-11-23T22:17:56.936Z,14.57
2018-11-23T22:20:27.789Z,14.97
2018-11-23T22:22:57.275Z,15.00
2018-11-23T22:25:27.149Z,14.53
2018-11-23T22:27:57.177Z,15.00
2018-11-23T22:30:32.112Z,14.87
2018-11-23T22:33:01.719Z,15.13
2018-11-23T22:35:31.499Z,14.40
2018-11-23T22:38:00.979Z,15.00
2018-11-23T22:40:30.424Z,16.30
2018-11-23T22:43:00.340Z,15.23
2018-11-23T22:45:29.774Z,14.70
2018-11-23T22:47:59.190Z,14.67
2018-11-23T22:50:29.760Z,14.90
2018-11-23T22:53:00.163Z,14.87
2018-11-23T22:55:29.607Z,16.00
2018-11-23T22:57:59.194Z,13.80
2018-11-23T23:00:34.184Z,12.73
2018-11-23T23:03:03.696Z,14.77
2018-11-23T23:05:33.372Z,14.77
2018-11-23T23:08:02.774Z,16.17
2018-11-23T23:10:33.500Z,14.77
2018-11-23T23:13:03.005Z,15.93
2018-11-23T23:15:32.495Z,15.73
2018-11-23T23:18:03.791Z,14.90
2018-11-23T23:20:33.320Z,15.80
2018-11-23T23:23:02.478Z,16.13
2018-11-23T23:25:31.670Z,15.27
2018-11-23T23:28:00.861Z,16.70
2018-11-23T23:30:30.140Z,15.40
2018-11-23T23:32:59.283Z,15.30
2018-11-23T23:35:28.500Z,16.07
2018-11-23T23:37:57.669Z,13.70
2018-11-23T23:40:26.834Z,15.27
2018-11-23T23:42:55.971Z,16.33
2018-11-23T23:45:25.221Z,16.83
2018-11-23T23:47:54.397Z,15.60
2018-11-23T23:50:23.615Z,17.03
2018-11-23T23:52:52.750Z,15.70
2018-11-23T23:55:22.012Z,16.80
2018-11-23T23:57:51.442Z,17.47
